Terminal Aerodrome Forecast
Issued by NWS

Home | Current Version | Previous Version | Text Only | Print | Product List | Glossary On
Versions: 1 2 3 4 5 6 7 8 9 10 11 12 13 14 15 16 17 18 19 20 21 22 23
000
FTAK31 PANC 030541
TAFADQ
TAF
PADQ 030541Z 0306/0406 15005KT 6SM -RA BR OVC025
      TEMPO 0306/0308 P6SM NSW OVC045
     FM031000 VRB03KT 3SM -RA BR SCT005 BKN015
     FM040200 09007KT 5SM -RA BR SCT015 OVC025=

USA.gov is the U.S. government's official web portal to all federal, state and local government web resources and services.